weather.gov     
National Weather Service

Terminal Aerodrome Forecast
NWS Homepage
This page is being discontinued on March 12, 2014.
The same data is available at this site. Please update your bookmarks.
Thank you, and we apologize for the inconvenience.
Please send an email to SR-SRH.Webmaster@noaa.gov with any concerns.


Current Version
Previous Version:    01  02  03  04  05  06  07  08  09  10  11  12  13  14  15  16  17  18  19  20  21  22  23  24  25  26  27  28  29  30  
   31  32  33  34  35  36  37  
[Printable]
864
FTUS44 KHGX 231431 AAC
TAFCXO
TAF AMD
KCXO 231431Z 2315/2412 16004KT P6SM SCT002
     FM231800 16011KT P6SM SCT040
     FM240100 16008KT P6SM FEW040
     FM240800 16006KT 3SM BR SCT010 SCT250
      TEMPO 2410/2412 1SM BR BKN010=




864
FTUS44 KHGX 231431 AAC
TAFCXO
TAF AMD
KCXO 231431Z 2315/2412 16004KT P6SM SCT002
     FM231800 16011KT P6SM SCT040
     FM240100 16008KT P6SM FEW040
     FM240800 16006KT 3SM BR SCT010 SCT250
      TEMPO 2410/2412 1SM BR BKN010=


U.S. Dept. of Commerce
NOAA National Weather Service
1325 East West Highway
Silver Spring, MD 20910
E-mail: w-nws.webmaster@noaa.gov
Page last modified: May 16, 2007
NATIONAL WEATHER SERVICE: for Safety, for Work, for Fun - FOR LIFE